createdAt,value
2023-01-29T00:01:55.932Z,-0.56
2023-01-29T00:04:22.736Z,-0.56
2023-01-29T00:06:49.643Z,-0.54
2023-01-29T00:09:16.322Z,-0.53
2023-01-29T00:11:42.953Z,-0.55
2023-01-29T00:14:09.446Z,-0.57
2023-01-29T00:16:36.147Z,-0.56
2023-01-29T00:19:03.717Z,-0.56
2023-01-29T00:21:33.981Z,-0.57
2023-01-29T00:24:00.886Z,-0.59
2023-01-29T00:26:28.036Z,-0.60
2023-01-29T00:28:57.000Z,-0.60
2023-01-29T00:31:25.422Z,-0.61
2023-01-29T00:33:52.670Z,-0.60
2023-01-29T00:36:21.100Z,-0.61
2023-01-29T00:38:54.797Z,-0.60
2023-01-29T00:41:40.772Z,-0.62
2023-01-29T00:44:26.899Z,-0.61
2023-01-29T00:46:53.578Z,-0.60
2023-01-29T00:49:20.747Z,-0.60
2023-01-29T00:52:09.731Z,-0.59
2023-01-29T00:54:36.662Z,-0.62
2023-01-29T00:57:04.509Z,-0.63
2023-01-29T00:59:31.157Z,-0.63
2023-01-29T01:02:16.392Z,-0.59
2023-01-29T01:04:42.936Z,-0.61
2023-01-29T01:07:09.577Z,-0.61
2023-01-29T01:09:55.256Z,-0.60
2023-01-29T01:12:22.089Z,-0.64
2023-01-29T01:14:49.202Z,-0.64
2023-01-29T01:17:16.006Z,-0.68
2023-01-29T01:19:42.968Z,-0.69
2023-01-29T01:22:09.513Z,-0.67
2023-01-29T01:24:36.076Z,-0.67
2023-01-29T01:27:02.640Z,-0.67
2023-01-29T01:29:29.195Z,-0.68
2023-01-29T01:31:55.779Z,-0.65
2023-01-29T01:34:22.428Z,-0.68
2023-01-29T01:36:49.411Z,-0.67
2023-01-29T01:39:15.971Z,-0.68
2023-01-29T01:41:42.497Z,-0.65
2023-01-29T01:44:47.187Z,-0.67
2023-01-29T01:47:15.607Z,-0.69
2023-01-29T01:49:43.705Z,-0.69
2023-01-29T01:52:12.639Z,-0.69
2023-01-29T01:54:39.396Z,-0.69
2023-01-29T01:57:17.807Z,-0.67
2023-01-29T01:59:50.227Z,-0.69
2023-01-29T02:02:36.339Z,-0.68
2023-01-29T02:05:21.601Z,-0.69
2023-01-29T02:08:08.824Z,-0.72
2023-01-29T02:10:48.832Z,-0.74
2023-01-29T02:13:18.710Z,-0.74
2023-01-29T02:15:48.805Z,-0.72
2023-01-29T02:18:19.444Z,-0.74
2023-01-29T02:21:04.065Z,-0.73
2023-01-29T02:23:57.509Z,-0.72
2023-01-29T02:26:45.710Z,-0.71
2023-01-29T02:29:23.147Z,-0.72
2023-01-29T02:31:57.311Z,-0.73
2023-01-29T02:34:29.626Z,-0.76
2023-01-29T02:37:10.951Z,-0.76
2023-01-29T02:39:59.748Z,-0.76
2023-01-29T02:42:38.713Z,-0.75
2023-01-29T02:45:22.302Z,-0.76
2023-01-29T02:47:52.610Z,-0.76
2023-01-29T02:50:33.936Z,-0.80
2023-01-29T02:53:09.127Z,-0.78
2023-01-29T02:55:42.421Z,-0.78
2023-01-29T02:58:26.052Z,-0.74
2023-01-29T03:00:56.424Z,-0.75
2023-01-29T03:03:32.373Z,-0.78
2023-01-29T03:06:07.349Z,-0.79
2023-01-29T03:08:50.006Z,-0.79
2023-01-29T03:11:18.106Z,-0.80
2023-01-29T03:14:02.587Z,-0.82
2023-01-29T03:16:51.017Z,-0.83
2023-01-29T03:19:50.958Z,-0.86
2023-01-29T03:22:21.920Z,-0.82
2023-01-29T03:25:13.242Z,-0.84
2023-01-29T03:28:17.857Z,-0.82
2023-01-29T03:31:11.302Z,-0.86
2023-01-29T03:34:05.243Z,-0.88
2023-01-29T03:36:45.354Z,-0.92
2023-01-29T03:39:13.548Z,-0.91
2023-01-29T03:41:56.305Z,-0.90
2023-01-29T03:44:49.100Z,-0.92
2023-01-29T03:47:44.007Z,-0.90
2023-01-29T03:50:33.745Z,-0.87
2023-01-29T03:53:24.992Z,-0.86
2023-01-29T03:56:12.818Z,-0.88
2023-01-29T03:58:48.005Z,-0.89
2023-01-29T04:01:40.253Z,-0.88
2023-01-29T04:04:13.325Z,-0.86
2023-01-29T04:06:43.377Z,-0.84
2023-01-29T04:09:15.236Z,-0.82
2023-01-29T04:11:48.305Z,-0.86
2023-01-29T04:14:15.042Z,-0.83
2023-01-29T04:16:47.649Z,-0.81
2023-01-29T04:19:14.464Z,-0.82
2023-01-29T04:21:41.367Z,-0.82
2023-01-29T04:24:08.906Z,-0.86
2023-01-29T04:27:06.736Z,-0.90
2023-01-29T04:29:48.907Z,-0.88
2023-01-29T04:32:17.914Z,-0.85
2023-01-29T04:35:20.546Z,-0.81
2023-01-29T04:38:05.318Z,-0.82
2023-01-29T04:40:59.761Z,-0.83
2023-01-29T04:44:00.707Z,-0.79
2023-01-29T04:46:42.564Z,-0.76
2023-01-29T04:49:44.322Z,-0.74
2023-01-29T04:52:32.796Z,-0.76
2023-01-29T04:55:17.959Z,-0.76
2023-01-29T04:58:10.233Z,-0.78
2023-01-29T05:00:43.549Z,-0.78
2023-01-29T05:03:13.757Z,-0.78
2023-01-29T05:05:43.881Z,-0.77
2023-01-29T05:08:12.050Z,-0.83
2023-01-29T05:10:39.123Z,-0.85
2023-01-29T05:13:08.567Z,-0.84
2023-01-29T05:15:42.743Z,-0.85
2023-01-29T05:18:10.182Z,-0.84
2023-01-29T05:20:39.994Z,-0.86
2023-01-29T05:23:24.767Z,-0.85
2023-01-29T05:25:52.065Z,-0.83
2023-01-29T05:28:19.192Z,-0.84
2023-01-29T05:30:48.467Z,-0.85
2023-01-29T05:33:26.293Z,-0.85
2023-01-29T05:35:53.218Z,-0.91
2023-01-29T05:38:20.641Z,-0.91
2023-01-29T05:40:47.540Z,-0.90
2023-01-29T05:43:23.003Z,-0.90
2023-01-29T05:45:57.501Z,-0.89
2023-01-29T05:48:24.770Z,-0.89
2023-01-29T05:50:51.974Z,-0.90
2023-01-29T05:53:18.519Z,-0.89
2023-01-29T05:55:46.381Z,-0.88
2023-01-29T05:58:12.938Z,-0.91
2023-01-29T06:00:40.518Z,-0.93
2023-01-29T06:03:07.165Z,-0.93
2023-01-29T06:05:33.833Z,-0.93
2023-01-29T06:08:00.327Z,-0.93
2023-01-29T06:10:26.854Z,-0.97
2023-01-29T06:12:53.436Z,-0.99
2023-01-29T06:15:19.993Z,-1.03
2023-01-29T06:17:46.482Z,-1.04
2023-01-29T06:20:13.467Z,-1.05
2023-01-29T06:22:39.990Z,-1.06
2023-01-29T06:25:07.294Z,-1.10
2023-01-29T06:27:33.816Z,-1.08
2023-01-29T06:30:00.332Z,-1.12
2023-01-29T06:32:27.917Z,-1.12
2023-01-29T06:34:54.463Z,-1.09
2023-01-29T06:37:20.951Z,-1.08
2023-01-29T06:39:47.450Z,-1.07
2023-01-29T06:42:13.945Z,-1.07
2023-01-29T06:44:40.470Z,-1.04
2023-01-29T06:47:06.975Z,-1.04
2023-01-29T06:49:33.594Z,-1.02
2023-01-29T06:52:00.123Z,-1.04
2023-01-29T06:54:26.610Z,-1.05
2023-01-29T06:56:53.136Z,-1.05
2023-01-29T06:59:19.615Z,-0.99
2023-01-29T07:01:46.350Z,-0.84
2023-01-29T07:04:12.974Z,-0.78
2023-01-29T07:06:39.711Z,-0.79
2023-01-29T07:09:06.369Z,-0.83
2023-01-29T07:11:35.082Z,-0.81
2023-01-29T07:14:01.609Z,-0.80
2023-01-29T07:16:28.177Z,-0.82
2023-01-29T07:18:54.828Z,-0.84
2023-01-29T07:21:21.433Z,-0.87
2023-01-29T07:23:47.929Z,-0.91
2023-01-29T07:26:14.649Z,-0.93
2023-01-29T07:28:41.363Z,-0.90
2023-01-29T07:31:11.724Z,-0.89
2023-01-29T07:33:38.313Z,-0.87
2023-01-29T07:36:09.355Z,-0.84
2023-01-29T07:38:35.945Z,-0.91
2023-01-29T07:41:03.325Z,-0.88
2023-01-29T07:43:30.347Z,-0.81
2023-01-29T07:45:57.049Z,-0.76
2023-01-29T07:48:23.705Z,-0.71
2023-01-29T07:50:57.433Z,-0.69
2023-01-29T07:53:24.428Z,-0.65
2023-01-29T07:55:51.497Z,-0.72
2023-01-29T07:58:17.974Z,-0.70
2023-01-29T08:00:45.079Z,-0.73
2023-01-29T08:03:14.327Z,-0.70
2023-01-29T08:05:40.863Z,-0.59
2023-01-29T08:08:08.049Z,-0.52
2023-01-29T08:10:36.066Z,-0.47
2023-01-29T08:13:03.706Z,-0.47
2023-01-29T08:15:30.891Z,-0.49
2023-01-29T08:20:44.246Z,-0.37
2023-01-29T08:23:16.334Z,-0.29
2023-01-29T08:25:43.344Z,-0.27
2023-01-29T08:28:11.759Z,-0.17
2023-01-29T08:30:38.794Z,-0.14
2023-01-29T08:33:05.385Z,-0.25
2023-01-29T08:35:32.035Z,-0.34
2023-01-29T08:38:00.906Z,-0.25
2023-01-29T08:40:29.066Z,-0.15
2023-01-29T08:43:03.997Z,-0.05
2023-01-29T08:45:34.654Z,-0.05
2023-01-29T08:48:01.273Z,-0.04
2023-01-29T08:50:30.034Z,-0.07
2023-01-29T08:53:00.597Z,0.03
2023-01-29T08:55:28.077Z,0.04
2023-01-29T08:57:55.154Z,0.02
2023-01-29T09:00:22.058Z,0.12
2023-01-29T09:02:48.809Z,0.21
2023-01-29T09:05:15.651Z,0.23
2023-01-29T09:07:42.508Z,0.25
2023-01-29T09:10:09.520Z,0.16
2023-01-29T09:12:36.068Z,0.15
2023-01-29T09:15:02.564Z,0.11
2023-01-29T09:17:29.082Z,0.19
2023-01-29T09:19:55.595Z,0.22
2023-01-29T09:22:22.129Z,0.33
2023-01-29T09:24:48.664Z,0.31
2023-01-29T09:27:15.172Z,0.38
2023-01-29T09:29:41.736Z,0.44
2023-01-29T09:32:08.291Z,0.54
2023-01-29T09:34:35.255Z,0.60
2023-01-29T09:37:01.858Z,0.52
2023-01-29T09:39:28.546Z,0.57
2023-01-29T09:42:41.865Z,0.65
2023-01-29T09:45:12.656Z,0.71
2023-01-29T09:47:39.469Z,0.70
2023-01-29T09:50:12.856Z,0.74
2023-01-29T09:52:44.173Z,0.79
2023-01-29T09:55:37.301Z,0.82
2023-01-29T09:58:19.475Z,0.79
2023-01-29T10:00:45.892Z,0.90
2023-01-29T10:03:15.428Z,0.97
2023-01-29T10:05:47.895Z,0.96
2023-01-29T10:08:29.899Z,1.00
2023-01-29T10:11:10.620Z,0.99
2023-01-29T10:14:02.644Z,0.99
2023-01-29T10:17:00.960Z,1.04
2023-01-29T10:20:07.193Z,1.06
2023-01-29T10:22:56.054Z,0.99
2023-01-29T10:25:23.414Z,0.98
2023-01-29T10:27:56.388Z,1.10
2023-01-29T10:30:33.798Z,1.10
2023-01-29T10:33:06.328Z,1.19
2023-01-29T10:35:42.173Z,1.19
2023-01-29T10:38:38.518Z,1.11
2023-01-29T10:41:22.016Z,1.03
2023-01-29T10:44:07.860Z,1.03
2023-01-29T10:47:00.386Z,1.11
2023-01-29T10:49:46.518Z,1.17
2023-01-29T10:52:34.603Z,1.12
2023-01-29T10:55:24.673Z,0.64
2023-01-29T10:58:09.956Z,0.71
2023-01-29T11:00:41.379Z,0.83
2023-01-29T11:03:28.593Z,0.78
2023-01-29T11:06:01.721Z,0.94
2023-01-29T11:08:54.112Z,0.99
2023-01-29T11:11:24.818Z,1.06
2023-01-29T11:14:07.007Z,0.99
2023-01-29T11:16:41.989Z,1.03
2023-01-29T11:19:08.745Z,1.10
2023-01-29T11:21:53.197Z,0.93
2023-01-29T11:24:19.808Z,1.02
2023-01-29T11:26:49.177Z,1.11
2023-01-29T11:29:37.968Z,1.22
2023-01-29T11:32:28.815Z,1.20
2023-01-29T11:34:58.405Z,1.23
2023-01-29T11:37:35.074Z,1.23
2023-01-29T11:40:01.959Z,1.27
2023-01-29T11:42:31.629Z,1.22
2023-01-29T11:44:58.176Z,1.20
2023-01-29T11:47:29.919Z,1.20
2023-01-29T11:50:02.592Z,1.12
2023-01-29T11:52:39.003Z,1.11
2023-01-29T11:55:13.978Z,1.20
2023-01-29T11:57:49.089Z,1.09
2023-01-29T12:00:18.797Z,1.12
2023-01-29T12:02:52.634Z,1.15
2023-01-29T12:05:23.043Z,1.16
2023-01-29T12:07:59.930Z,1.31
2023-01-29T12:10:40.878Z,1.22
2023-01-29T12:13:10.472Z,1.23
2023-01-29T12:15:38.427Z,1.30
2023-01-29T12:18:29.949Z,1.37
2023-01-29T12:21:05.778Z,1.38
2023-01-29T12:23:46.143Z,1.36
2023-01-29T12:26:49.510Z,1.30
2023-01-29T12:29:28.248Z,1.26
2023-01-29T12:31:54.796Z,1.20
2023-01-29T12:34:46.321Z,1.20
2023-01-29T12:37:38.328Z,1.30
2023-01-29T12:40:16.564Z,1.22
2023-01-29T12:42:49.959Z,1.32
2023-01-29T12:45:20.271Z,1.38
2023-01-29T12:47:49.775Z,1.41
2023-01-29T12:50:32.976Z,1.36
2023-01-29T12:53:06.574Z,1.41
2023-01-29T12:55:50.121Z,1.38
2023-01-29T12:58:36.242Z,1.35
2023-01-29T13:01:45.979Z,1.33
2023-01-29T13:04:28.350Z,1.29
2023-01-29T13:07:00.328Z,1.29
2023-01-29T13:09:31.247Z,1.26
2023-01-29T13:12:03.751Z,1.19
2023-01-29T13:14:44.182Z,1.20
2023-01-29T13:17:18.304Z,1.07
2023-01-29T13:19:48.973Z,1.10
2023-01-29T13:22:22.014Z,1.10
2023-01-29T13:24:58.692Z,1.09
2023-01-29T13:27:33.162Z,1.08
2023-01-29T13:30:00.170Z,1.10
2023-01-29T13:32:29.628Z,1.08
2023-01-29T13:35:00.296Z,1.09
2023-01-29T13:37:32.707Z,1.11
2023-01-29T13:40:01.767Z,1.12
2023-01-29T13:42:40.439Z,1.12
2023-01-29T13:45:09.108Z,1.03
2023-01-29T13:47:39.153Z,1.00
2023-01-29T13:50:07.886Z,0.96
2023-01-29T13:52:34.756Z,0.87
2023-01-29T13:55:01.198Z,0.90
2023-01-29T13:57:46.450Z,0.89
2023-01-29T14:00:21.722Z,0.91
2023-01-29T14:03:13.755Z,0.89
2023-01-29T14:05:59.836Z,0.91
2023-01-29T14:08:35.274Z,0.92
2023-01-29T14:11:17.068Z,0.94
2023-01-29T14:13:48.554Z,0.94
2023-01-29T14:16:15.035Z,0.79
2023-01-29T14:18:58.683Z,0.84
2023-01-29T14:21:31.920Z,0.86
2023-01-29T14:24:20.832Z,0.87
2023-01-29T14:26:49.526Z,0.82
2023-01-29T14:29:35.512Z,0.85
2023-01-29T14:32:08.053Z,0.78
2023-01-29T14:34:50.885Z,0.78
2023-01-29T14:37:18.773Z,0.72
2023-01-29T14:39:50.154Z,0.71
2023-01-29T14:42:33.691Z,0.71
2023-01-29T14:45:25.172Z,0.69
2023-01-29T14:48:13.189Z,0.59
2023-01-29T14:50:47.103Z,0.56
2023-01-29T14:53:19.881Z,0.49
2023-01-29T14:56:00.951Z,0.47
2023-01-29T14:58:33.257Z,0.47
2023-01-29T15:01:01.352Z,0.29
2023-01-29T15:03:49.912Z,0.22
2023-01-29T15:06:23.083Z,0.21
2023-01-29T15:08:56.385Z,0.18
2023-01-29T15:11:37.526Z,0.16
2023-01-29T15:14:23.811Z,0.16
2023-01-29T15:17:04.749Z,0.17
2023-01-29T15:19:37.116Z,0.11
2023-01-29T15:22:14.780Z,0.11
2023-01-29T15:24:43.382Z,0.12
2023-01-29T15:27:19.265Z,0.13
2023-01-29T15:29:59.136Z,0.11
2023-01-29T15:32:31.159Z,0.10
2023-01-29T15:34:59.144Z,0.10
2023-01-29T15:37:33.931Z,0.06
2023-01-29T15:40:01.932Z,0.06
2023-01-29T15:42:41.366Z,0.05
2023-01-29T15:45:31.328Z,0.05
2023-01-29T15:48:07.041Z,0.01
2023-01-29T15:50:37.275Z,-0.02
2023-01-29T15:53:08.143Z,-0.01
2023-01-29T15:55:35.884Z,-0.04
2023-01-29T15:58:02.597Z,-0.06
2023-01-29T16:00:30.420Z,-0.09
2023-01-29T16:02:57.715Z,-0.11
2023-01-29T16:05:28.479Z,-0.13
2023-01-29T16:07:56.922Z,-0.15
2023-01-29T16:10:30.312Z,-0.16
2023-01-29T16:12:57.746Z,-0.15
2023-01-29T16:15:31.450Z,-0.17
2023-01-29T16:18:00.216Z,-0.19
2023-01-29T16:20:37.754Z,-0.18
2023-01-29T16:23:06.039Z,-0.21
2023-01-29T16:25:34.833Z,-0.22
2023-01-29T16:28:04.478Z,-0.23
2023-01-29T16:30:31.181Z,-0.23
2023-01-29T16:33:02.702Z,-0.24
2023-01-29T16:35:29.717Z,-0.26
2023-01-29T16:38:03.176Z,-0.28
2023-01-29T16:40:33.845Z,-0.26
2023-01-29T16:43:37.483Z,-0.26
2023-01-29T16:46:47.559Z,-0.27
2023-01-29T16:49:29.402Z,-0.29
2023-01-29T16:51:56.618Z,-0.29
2023-01-29T16:54:27.588Z,-0.30
2023-01-29T16:57:00.402Z,-0.29
2023-01-29T16:59:38.826Z,-0.32
2023-01-29T17:02:22.419Z,-0.35
2023-01-29T17:04:51.026Z,-0.41
2023-01-29T17:07:22.393Z,-0.45
2023-01-29T17:09:54.359Z,-0.48
2023-01-29T17:12:25.349Z,-0.48
2023-01-29T17:15:01.634Z,-0.48
2023-01-29T17:17:36.146Z,-0.51
2023-01-29T17:20:14.570Z,-0.52
2023-01-29T17:22:41.327Z,-0.53
2023-01-29T17:25:09.557Z,-0.54
2023-01-29T17:27:45.481Z,-0.55
2023-01-29T17:30:16.507Z,-0.54
2023-01-29T17:32:44.292Z,-0.54
2023-01-29T17:35:16.357Z,-0.53
2023-01-29T17:37:44.318Z,-0.55
2023-01-29T17:40:27.784Z,-0.55
2023-01-29T17:42:54.249Z,-0.56
2023-01-29T17:45:20.865Z,-0.56
2023-01-29T17:47:47.459Z,-0.57
2023-01-29T17:50:22.521Z,-0.59
2023-01-29T17:52:50.119Z,-0.59
2023-01-29T17:55:17.420Z,-0.64
2023-01-29T17:57:44.227Z,-0.64
2023-01-29T18:00:15.851Z,-0.67
2023-01-29T18:02:42.327Z,-0.67
2023-01-29T18:05:09.254Z,-0.68
2023-01-29T18:07:37.956Z,-0.68
2023-01-29T18:10:05.030Z,-0.68
2023-01-29T18:12:31.589Z,-0.67
2023-01-29T18:14:58.193Z,-0.67
2023-01-29T18:17:24.987Z,-0.65
2023-01-29T18:19:51.509Z,-0.65
2023-01-29T18:22:17.991Z,-0.65
2023-01-29T18:24:44.558Z,-0.68
2023-01-29T18:27:11.618Z,-0.67
2023-01-29T18:29:38.385Z,-0.63
2023-01-29T18:32:05.218Z,-0.69
2023-01-29T18:34:31.705Z,-0.68
2023-01-29T18:36:59.630Z,-0.70
2023-01-29T18:39:26.141Z,-0.73
2023-01-29T18:41:52.776Z,-0.73
2023-01-29T18:44:19.474Z,-0.79
2023-01-29T18:46:45.983Z,-0.76
2023-01-29T18:49:12.519Z,-0.80
2023-01-29T18:51:39.052Z,-0.85
2023-01-29T18:54:05.619Z,-0.84
2023-01-29T18:56:32.105Z,-0.81
2023-01-29T18:58:58.667Z,-0.80
2023-01-29T19:01:27.204Z,-0.76
2023-01-29T19:03:54.124Z,-0.74
2023-01-29T19:06:20.657Z,-0.72
2023-01-29T19:08:47.491Z,-0.72
2023-01-29T19:11:14.308Z,-0.73
2023-01-29T19:13:42.507Z,-0.72
2023-01-29T19:16:10.167Z,-0.75
2023-01-29T19:18:37.145Z,-0.75
2023-01-29T19:21:08.917Z,-0.75
2023-01-29T19:23:35.493Z,-0.79
2023-01-29T19:26:02.023Z,-0.78
2023-01-29T19:28:28.564Z,-0.79
2023-01-29T19:30:59.018Z,-0.81
2023-01-29T19:33:27.723Z,-0.84
2023-01-29T19:36:01.174Z,-0.84
2023-01-29T19:38:28.378Z,-0.84
2023-01-29T19:40:57.709Z,-0.80
2023-01-29T19:43:24.194Z,-0.83
2023-01-29T19:45:58.255Z,-0.87
2023-01-29T19:48:26.378Z,-0.87
2023-01-29T19:51:04.808Z,-0.84
2023-01-29T19:53:31.537Z,-0.84
2023-01-29T19:56:09.430Z,-0.81
2023-01-29T19:58:36.768Z,-0.76
2023-01-29T20:01:15.973Z,-0.76
2023-01-29T20:03:42.692Z,-0.74
2023-01-29T20:06:09.649Z,-0.71
2023-01-29T20:08:36.188Z,-0.70
2023-01-29T20:11:03.041Z,-0.72
2023-01-29T20:13:29.841Z,-0.73
2023-01-29T20:15:56.537Z,-0.72
2023-01-29T20:18:23.081Z,-0.72
2023-01-29T20:20:53.075Z,-0.71
2023-01-29T20:23:37.597Z,-0.68
2023-01-29T20:26:04.983Z,-0.71
2023-01-29T20:28:31.506Z,-0.69
2023-01-29T20:30:59.044Z,-0.68
2023-01-29T20:33:26.483Z,-0.65
2023-01-29T20:36:01.337Z,-0.65
2023-01-29T20:38:31.724Z,-0.62
2023-01-29T20:41:04.318Z,-0.68
2023-01-29T20:43:31.094Z,-0.68
2023-01-29T20:45:58.351Z,-0.69
2023-01-29T20:48:25.016Z,-0.71
2023-01-29T20:50:51.624Z,-0.72
2023-01-29T20:53:18.135Z,-0.74
2023-01-29T20:55:45.265Z,-0.77
2023-01-29T20:58:11.892Z,-0.82
2023-01-29T21:00:38.965Z,-0.80
2023-01-29T21:03:05.554Z,-0.75
2023-01-29T21:05:32.367Z,-0.74
2023-01-29T21:07:58.885Z,-0.75
2023-01-29T21:10:25.472Z,-0.79
2023-01-29T21:12:52.141Z,-0.81
2023-01-29T21:15:18.634Z,-0.79
2023-01-29T21:17:47.565Z,-0.80
2023-01-29T21:20:14.151Z,-0.81
2023-01-29T21:22:43.929Z,-0.84
2023-01-29T21:25:11.137Z,-0.90
2023-01-29T21:27:37.903Z,-0.91
2023-01-29T21:30:04.920Z,-0.90
2023-01-29T21:32:31.487Z,-0.90
2023-01-29T21:34:57.996Z,-0.88
2023-01-29T21:37:24.487Z,-0.89
2023-01-29T21:39:50.987Z,-0.86
2023-01-29T21:42:36.072Z,-0.84
2023-01-29T21:45:02.627Z,-0.80
2023-01-29T21:47:29.161Z,-0.80
2023-01-29T21:49:55.714Z,-0.82
2023-01-29T21:52:22.276Z,-0.82
2023-01-29T21:54:49.016Z,-0.82
2023-01-29T21:57:16.475Z,-0.80
2023-01-29T21:59:43.440Z,-0.82
2023-01-29T22:02:17.190Z,-0.82
2023-01-29T22:04:43.789Z,-0.87
2023-01-29T22:07:11.908Z,-0.90
2023-01-29T22:09:39.041Z,-0.91
2023-01-29T22:12:06.934Z,-0.92
2023-01-29T22:14:33.690Z,-0.95
2023-01-29T22:17:00.321Z,-0.98
2023-01-29T22:19:28.696Z,-1.03
2023-01-29T22:21:55.484Z,-1.03
2023-01-29T22:24:24.949Z,-1.07
2023-01-29T22:26:51.595Z,-1.07
2023-01-29T22:29:18.375Z,-1.08
2023-01-29T22:31:45.541Z,-1.08
2023-01-29T22:34:13.373Z,-1.10
2023-01-29T22:36:40.144Z,-1.11
2023-01-29T22:39:08.855Z,-1.11
2023-01-29T22:41:36.140Z,-1.12
2023-01-29T22:44:02.892Z,-1.10
2023-01-29T22:46:29.592Z,-1.12
2023-01-29T22:48:56.665Z,-1.12
2023-01-29T22:51:23.675Z,-1.16
2023-01-29T22:53:55.021Z,-1.23
2023-01-29T22:56:25.370Z,-1.23
2023-01-29T22:58:53.478Z,-1.23
2023-01-29T23:01:21.865Z,-1.23
2023-01-29T23:03:48.397Z,-1.26
2023-01-29T23:06:16.352Z,-1.27
2023-01-29T23:08:42.929Z,-1.26
2023-01-29T23:11:14.660Z,-1.32
2023-01-29T23:13:46.328Z,-1.40
2023-01-29T23:16:14.342Z,-1.56
2023-01-29T23:18:41.600Z,-1.70
2023-01-29T23:21:08.739Z,-1.83
2023-01-29T23:23:37.863Z,-1.92
2023-01-29T23:26:25.575Z,-1.99
2023-01-29T23:28:52.315Z,-2.09
2023-01-29T23:31:18.976Z,-2.13
2023-01-29T23:33:45.558Z,-2.19
2023-01-29T23:36:12.568Z,-2.23
2023-01-29T23:38:39.606Z,-2.29
2023-01-29T23:41:06.199Z,-2.37
2023-01-29T23:43:32.912Z,-2.42
2023-01-29T23:45:59.430Z,-2.36
2023-01-29T23:48:26.098Z,-2.39
2023-01-29T23:50:52.594Z,-2.41
2023-01-29T23:53:19.146Z,-2.46
2023-01-29T23:56:04.927Z,-2.50
2023-01-29T23:58:32.800Z,-2.55
